sensor_id;sensor_type;location;lat;lon;timestamp;P1;durP1;ratioP1;P2;durP2;ratioP2
55497;SDS011;41357;52.806;18.268;2022-10-31T00:02:06;63.22;;;26.83;;
55497;SDS011;41357;52.806;18.268;2022-10-31T00:04:32;53.67;;;25.40;;
55497;SDS011;41357;52.806;18.268;2022-10-31T00:06:58;55.55;;;22.58;;
55497;SDS011;41357;52.806;18.268;2022-10-31T00:09:25;55.50;;;22.30;;
55497;SDS011;41357;52.806;18.268;2022-10-31T00:11:51;54.58;;;24.90;;
55497;SDS011;41357;52.806;18.268;2022-10-31T00:14:17;58.88;;;23.35;;
55497;SDS011;41357;52.806;18.268;2022-10-31T00:16:43;53.45;;;24.20;;
55497;SDS011;41357;52.806;18.268;2022-10-31T00:19:09;53.22;;;25.35;;
55497;SDS011;41357;52.806;18.268;2022-10-31T00:21:35;62.15;;;22.55;;
55497;SDS011;41357;52.806;18.268;2022-10-31T00:24:01;50.15;;;22.65;;
55497;SDS011;41357;52.806;18.268;2022-10-31T00:26:28;47.90;;;23.35;;
55497;SDS011;41357;52.806;18.268;2022-10-31T00:28:54;45.17;;;22.48;;
55497;SDS011;41357;52.806;18.268;2022-10-31T00:31:21;43.58;;;22.25;;
55497;SDS011;41357;52.806;18.268;2022-10-31T00:33:47;49.70;;;22.13;;
55497;SDS011;41357;52.806;18.268;2022-10-31T00:36:14;39.58;;;21.58;;
55497;SDS011;41357;52.806;18.268;2022-10-31T00:38:40;48.33;;;21.85;;
55497;SDS011;41357;52.806;18.268;2022-10-31T00:41:06;38.63;;;20.67;;
55497;SDS011;41357;52.806;18.268;2022-10-31T00:43:33;41.55;;;20.33;;
55497;SDS011;41357;52.806;18.268;2022-10-31T00:45:59;51.92;;;22.00;;
55497;SDS011;41357;52.806;18.268;2022-10-31T00:48:25;40.72;;;22.75;;
55497;SDS011;41357;52.806;18.268;2022-10-31T00:50:51;39.15;;;20.88;;
55497;SDS011;41357;52.806;18.268;2022-10-31T00:53:17;41.28;;;21.50;;
55497;SDS011;41357;52.806;18.268;2022-10-31T00:55:43;38.67;;;21.75;;
55497;SDS011;41357;52.806;18.268;2022-10-31T00:58:09;41.50;;;22.50;;
55497;SDS011;41357;52.806;18.268;2022-10-31T01:00:36;40.90;;;21.40;;
55497;SDS011;41357;52.806;18.268;2022-10-31T01:03:02;40.25;;;21.23;;
55497;SDS011;41357;52.806;18.268;2022-10-31T01:05:28;39.47;;;22.90;;
55497;SDS011;41357;52.806;18.268;2022-10-31T01:07:54;38.78;;;21.75;;
55497;SDS011;41357;52.806;18.268;2022-10-31T01:10:20;37.67;;;20.02;;
55497;SDS011;41357;52.806;18.268;2022-10-31T01:12:47;35.47;;;21.17;;
55497;SDS011;41357;52.806;18.268;2022-10-31T01:15:19;45.13;;;20.45;;
55497;SDS011;41357;52.806;18.268;2022-10-31T01:17:45;34.78;;;20.63;;
55497;SDS011;41357;52.806;18.268;2022-10-31T01:20:12;33.72;;;19.90;;
55497;SDS011;41357;52.806;18.268;2022-10-31T01:22:38;43.22;;;21.02;;
55497;SDS011;41357;52.806;18.268;2022-10-31T01:25:05;41.58;;;20.50;;
55497;SDS011;41357;52.806;18.268;2022-10-31T01:27:32;38.38;;;21.38;;
55497;SDS011;41357;52.806;18.268;2022-10-31T01:29:58;38.72;;;20.77;;
55497;SDS011;41357;52.806;18.268;2022-10-31T01:32:24;43.50;;;21.45;;
55497;SDS011;41357;52.806;18.268;2022-10-31T01:34:50;42.72;;;21.95;;
55497;SDS011;41357;52.806;18.268;2022-10-31T01:37:16;39.65;;;21.52;;
55497;SDS011;41357;52.806;18.268;2022-10-31T01:39:43;41.38;;;21.15;;
55497;SDS011;41357;52.806;18.268;2022-10-31T01:42:10;39.38;;;21.33;;
55497;SDS011;41357;52.806;18.268;2022-10-31T01:47:14;40.42;;;20.23;;
55497;SDS011;41357;52.806;18.268;2022-10-31T01:49:45;36.10;;;20.50;;
55497;SDS011;41357;52.806;18.268;2022-10-31T01:52:14;38.78;;;19.67;;
55497;SDS011;41357;52.806;18.268;2022-10-31T01:54:50;40.65;;;20.38;;
55497;SDS011;41357;52.806;18.268;2022-10-31T01:57:17;43.63;;;21.73;;
55497;SDS011;41357;52.806;18.268;2022-10-31T01:59:46;42.80;;;21.30;;
55497;SDS011;41357;52.806;18.268;2022-10-31T02:02:13;54.35;;;22.50;;
55497;SDS011;41357;52.806;18.268;2022-10-31T02:04:40;65.63;;;23.75;;
55497;SDS011;41357;52.806;18.268;2022-10-31T02:07:42;75.45;;;22.92;;
55497;SDS011;41357;52.806;18.268;2022-10-31T02:09:59;142.27;;;30.17;;
55497;SDS011;41357;52.806;18.268;2022-10-31T02:12:26;106.85;;;29.77;;
55497;SDS011;41357;52.806;18.268;2022-10-31T02:14:53;143.68;;;31.55;;
55497;SDS011;41357;52.806;18.268;2022-10-31T02:17:19;147.90;;;30.50;;
55497;SDS011;41357;52.806;18.268;2022-10-31T02:23:10;126.03;;;30.40;;
55497;SDS011;41357;52.806;18.268;2022-10-31T02:30:23;80.75;;;28.80;;
55497;SDS011;41357;52.806;18.268;2022-10-31T02:38:19;89.32;;;27.42;;
55497;SDS011;41357;52.806;18.268;2022-10-31T02:40:58;92.75;;;26.48;;
55497;SDS011;41357;52.806;18.268;2022-10-31T02:43:31;90.45;;;26.27;;
55497;SDS011;41357;52.806;18.268;2022-10-31T02:46:32;94.18;;;27.20;;
55497;SDS011;41357;52.806;18.268;2022-10-31T02:48:52;82.10;;;25.55;;
55497;SDS011;41357;52.806;18.268;2022-10-31T02:51:18;80.75;;;24.83;;
55497;SDS011;41357;52.806;18.268;2022-10-31T02:53:45;67.13;;;24.52;;
55497;SDS011;41357;52.806;18.268;2022-10-31T02:56:12;84.43;;;24.02;;
55497;SDS011;41357;52.806;18.268;2022-10-31T02:58:41;53.28;;;22.02;;
55497;SDS011;41357;52.806;18.268;2022-10-31T03:06:30;74.70;;;22.73;;
55497;SDS011;41357;52.806;18.268;2022-10-31T03:11:32;62.10;;;21.73;;
55497;SDS011;41357;52.806;18.268;2022-10-31T03:14:06;60.60;;;21.60;;
55497;SDS011;41357;52.806;18.268;2022-10-31T03:16:38;41.58;;;18.67;;
55497;SDS011;41357;52.806;18.268;2022-10-31T03:19:06;48.00;;;19.58;;
55497;SDS011;41357;52.806;18.268;2022-10-31T03:21:35;46.42;;;20.60;;
55497;SDS011;41357;52.806;18.268;2022-10-31T03:24:05;42.35;;;21.75;;
55497;SDS011;41357;52.806;18.268;2022-10-31T03:26:32;41.55;;;20.23;;
55497;SDS011;41357;52.806;18.268;2022-10-31T03:29:03;38.78;;;20.98;;
55497;SDS011;41357;52.806;18.268;2022-10-31T03:31:32;49.10;;;20.50;;
55497;SDS011;41357;52.806;18.268;2022-10-31T03:33:59;36.20;;;18.90;;
55497;SDS011;41357;52.806;18.268;2022-10-31T03:36:27;44.67;;;20.92;;
55497;SDS011;41357;52.806;18.268;2022-10-31T03:38:55;37.88;;;21.33;;
55497;SDS011;41357;52.806;18.268;2022-10-31T03:41:23;50.05;;;19.10;;
55497;SDS011;41357;52.806;18.268;2022-10-31T03:43:59;56.20;;;21.52;;
55497;SDS011;41357;52.806;18.268;2022-10-31T03:46:26;50.20;;;19.67;;
55497;SDS011;41357;52.806;18.268;2022-10-31T03:48:53;41.33;;;19.73;;
55497;SDS011;41357;52.806;18.268;2022-10-31T03:53:46;44.20;;;20.50;;
55497;SDS011;41357;52.806;18.268;2022-10-31T03:58:47;46.15;;;18.67;;
55497;SDS011;41357;52.806;18.268;2022-10-31T04:01:16;33.67;;;18.33;;
55497;SDS011;41357;52.806;18.268;2022-10-31T04:03:43;39.92;;;19.75;;
55497;SDS011;41357;52.806;18.268;2022-10-31T04:06:10;38.13;;;20.05;;
55497;SDS011;41357;52.806;18.268;2022-10-31T04:08:40;54.90;;;18.48;;
55497;SDS011;41357;52.806;18.268;2022-10-31T04:11:08;36.70;;;18.17;;
55497;SDS011;41357;52.806;18.268;2022-10-31T04:13:35;43.45;;;19.88;;
55497;SDS011;41357;52.806;18.268;2022-10-31T04:16:03;42.90;;;19.88;;
55497;SDS011;41357;52.806;18.268;2022-10-31T04:18:29;28.15;;;18.95;;
55497;SDS011;41357;52.806;18.268;2022-10-31T04:21:02;33.42;;;18.48;;
55497;SDS011;41357;52.806;18.268;2022-10-31T04:23:29;32.78;;;19.13;;
55497;SDS011;41357;52.806;18.268;2022-10-31T04:25:56;35.67;;;19.90;;
55497;SDS011;41357;52.806;18.268;2022-10-31T04:28:22;37.38;;;19.13;;
55497;SDS011;41357;52.806;18.268;2022-10-31T04:30:48;51.28;;;21.55;;
55497;SDS011;41357;52.806;18.268;2022-10-31T04:33:15;40.67;;;21.30;;
55497;SDS011;41357;52.806;18.268;2022-10-31T04:35:41;36.90;;;20.65;;
55497;SDS011;41357;52.806;18.268;2022-10-31T04:38:07;42.83;;;20.15;;
55497;SDS011;41357;52.806;18.268;2022-10-31T04:40:33;41.92;;;20.63;;
55497;SDS011;41357;52.806;18.268;2022-10-31T04:42:59;40.22;;;21.02;;
55497;SDS011;41357;52.806;18.268;2022-10-31T04:45:25;43.72;;;20.23;;
55497;SDS011;41357;52.806;18.268;2022-10-31T04:47:51;40.78;;;20.60;;
55497;SDS011;41357;52.806;18.268;2022-10-31T04:50:17;46.15;;;20.75;;
55497;SDS011;41357;52.806;18.268;2022-10-31T04:52:44;33.65;;;20.23;;
55497;SDS011;41357;52.806;18.268;2022-10-31T04:55:11;34.53;;;20.77;;
55497;SDS011;41357;52.806;18.268;2022-10-31T04:57:43;30.23;;;19.13;;
55497;SDS011;41357;52.806;18.268;2022-10-31T05:00:10;41.97;;;20.05;;
55497;SDS011;41357;52.806;18.268;2022-10-31T05:03:10;40.53;;;19.65;;
55497;SDS011;41357;52.806;18.268;2022-10-31T05:05:29;32.33;;;18.00;;
55497;SDS011;41357;52.806;18.268;2022-10-31T05:07:56;40.60;;;18.55;;
55497;SDS011;41357;52.806;18.268;2022-10-31T05:10:26;35.90;;;19.40;;
55497;SDS011;41357;52.806;18.268;2022-10-31T05:12:53;35.85;;;20.17;;
55497;SDS011;41357;52.806;18.268;2022-10-31T05:15:20;34.72;;;19.02;;
55497;SDS011;41357;52.806;18.268;2022-10-31T05:17:47;42.42;;;18.83;;
55497;SDS011;41357;52.806;18.268;2022-10-31T05:20:13;38.15;;;19.85;;
55497;SDS011;41357;52.806;18.268;2022-10-31T05:22:43;38.28;;;19.23;;
55497;SDS011;41357;52.806;18.268;2022-10-31T05:25:10;46.63;;;19.02;;
55497;SDS011;41357;52.806;18.268;2022-10-31T05:27:43;33.53;;;18.77;;
55497;SDS011;41357;52.806;18.268;2022-10-31T05:30:10;33.53;;;18.30;;
55497;SDS011;41357;52.806;18.268;2022-10-31T05:32:40;51.72;;;19.98;;
55497;SDS011;41357;52.806;18.268;2022-10-31T05:35:07;49.65;;;19.70;;
55497;SDS011;41357;52.806;18.268;2022-10-31T05:37:34;49.33;;;19.50;;
55497;SDS011;41357;52.806;18.268;2022-10-31T05:40:01;50.45;;;19.02;;
55497;SDS011;41357;52.806;18.268;2022-10-31T05:42:27;47.60;;;18.65;;
55497;SDS011;41357;52.806;18.268;2022-10-31T05:44:53;45.08;;;19.77;;
55497;SDS011;41357;52.806;18.268;2022-10-31T05:47:19;41.65;;;17.92;;
55497;SDS011;41357;52.806;18.268;2022-10-31T05:49:45;45.95;;;18.92;;
55497;SDS011;41357;52.806;18.268;2022-10-31T05:52:11;48.40;;;18.15;;
55497;SDS011;41357;52.806;18.268;2022-10-31T05:54:37;42.72;;;18.98;;
55497;SDS011;41357;52.806;18.268;2022-10-31T05:57:04;49.80;;;19.23;;
55497;SDS011;41357;52.806;18.268;2022-10-31T05:59:30;42.03;;;18.45;;
55497;SDS011;41357;52.806;18.268;2022-10-31T06:01:56;34.42;;;17.08;;
55497;SDS011;41357;52.806;18.268;2022-10-31T06:04:22;53.40;;;18.60;;
55497;SDS011;41357;52.806;18.268;2022-10-31T06:06:48;77.00;;;20.13;;
55497;SDS011;41357;52.806;18.268;2022-10-31T06:09:14;42.35;;;17.73;;
55497;SDS011;41357;52.806;18.268;2022-10-31T06:11:43;50.30;;;18.25;;
55497;SDS011;41357;52.806;18.268;2022-10-31T06:14:10;45.72;;;18.40;;
55497;SDS011;41357;52.806;18.268;2022-10-31T06:16:36;42.05;;;17.85;;
55497;SDS011;41357;52.806;18.268;2022-10-31T06:19:02;65.80;;;19.50;;
55497;SDS011;41357;52.806;18.268;2022-10-31T06:21:28;48.85;;;18.80;;
55497;SDS011;41357;52.806;18.268;2022-10-31T06:23:54;54.95;;;19.08;;
55497;SDS011;41357;52.806;18.268;2022-10-31T06:26:20;46.17;;;17.75;;
55497;SDS011;41357;52.806;18.268;2022-10-31T06:28:46;34.80;;;18.45;;
55497;SDS011;41357;52.806;18.268;2022-10-31T06:31:13;54.90;;;19.20;;
55497;SDS011;41357;52.806;18.268;2022-10-31T06:33:40;71.35;;;20.02;;
55497;SDS011;41357;52.806;18.268;2022-10-31T06:36:07;68.07;;;20.33;;
55497;SDS011;41357;52.806;18.268;2022-10-31T06:38:33;78.68;;;21.15;;
55497;SDS011;41357;52.806;18.268;2022-10-31T06:41:05;75.57;;;21.38;;
55497;SDS011;41357;52.806;18.268;2022-10-31T06:43:31;101.72;;;24.98;;
55497;SDS011;41357;52.806;18.268;2022-10-31T06:46:01;192.52;;;36.75;;
55497;SDS011;41357;52.806;18.268;2022-10-31T06:48:27;230.00;;;39.00;;
55497;SDS011;41357;52.806;18.268;2022-10-31T06:50:56;236.27;;;37.35;;
55497;SDS011;41357;52.806;18.268;2022-10-31T06:53:23;167.52;;;34.17;;
55497;SDS011;41357;52.806;18.268;2022-10-31T06:55:49;206.07;;;38.22;;
55497;SDS011;41357;52.806;18.268;2022-10-31T06:58:15;217.20;;;33.00;;
55497;SDS011;41357;52.806;18.268;2022-10-31T07:00:41;156.63;;;31.60;;
55497;SDS011;41357;52.806;18.268;2022-10-31T07:03:11;134.57;;;27.48;;
55497;SDS011;41357;52.806;18.268;2022-10-31T07:05:37;165.10;;;30.10;;
55497;SDS011;41357;52.806;18.268;2022-10-31T07:08:05;104.05;;;25.35;;
55497;SDS011;41357;52.806;18.268;2022-10-31T07:10:32;85.57;;;24.80;;
55497;SDS011;41357;52.806;18.268;2022-10-31T07:12:59;89.43;;;26.33;;
55497;SDS011;41357;52.806;18.268;2022-10-31T07:15:26;87.45;;;24.88;;
55497;SDS011;41357;52.806;18.268;2022-10-31T07:17:53;80.40;;;27.80;;
55497;SDS011;41357;52.806;18.268;2022-10-31T07:20:19;87.53;;;27.42;;
55497;SDS011;41357;52.806;18.268;2022-10-31T07:22:45;135.27;;;30.45;;
55497;SDS011;41357;52.806;18.268;2022-10-31T07:25:12;208.98;;;33.35;;
55497;SDS011;41357;52.806;18.268;2022-10-31T07:27:38;193.30;;;38.25;;
55497;SDS011;41357;52.806;18.268;2022-10-31T07:30:05;217.15;;;39.08;;
55497;SDS011;41357;52.806;18.268;2022-10-31T07:32:41;263.90;;;47.00;;
55497;SDS011;41357;52.806;18.268;2022-10-31T07:35:08;362.23;;;53.50;;
55497;SDS011;41357;52.806;18.268;2022-10-31T07:37:35;312.73;;;50.20;;
55497;SDS011;41357;52.806;18.268;2022-10-31T07:40:02;320.95;;;46.47;;
55497;SDS011;41357;52.806;18.268;2022-10-31T07:42:28;283.13;;;48.42;;
55497;SDS011;41357;52.806;18.268;2022-10-31T07:44:54;653.38;;;84.28;;
55497;SDS011;41357;52.806;18.268;2022-10-31T07:47:20;519.95;;;71.05;;
55497;SDS011;41357;52.806;18.268;2022-10-31T07:49:47;498.23;;;64.05;;
55497;SDS011;41357;52.806;18.268;2022-10-31T07:52:13;412.83;;;56.13;;
55497;SDS011;41357;52.806;18.268;2022-10-31T07:54:39;353.85;;;47.85;;
55497;SDS011;41357;52.806;18.268;2022-10-31T07:57:05;309.02;;;41.35;;
55497;SDS011;41357;52.806;18.268;2022-10-31T07:59:31;304.85;;;39.85;;
55497;SDS011;41357;52.806;18.268;2022-10-31T08:01:57;210.55;;;36.53;;
55497;SDS011;41357;52.806;18.268;2022-10-31T08:04:23;267.50;;;30.88;;
55497;SDS011;41357;52.806;18.268;2022-10-31T08:06:50;225.73;;;30.00;;
55497;SDS011;41357;52.806;18.268;2022-10-31T08:09:16;154.35;;;26.35;;
55497;SDS011;41357;52.806;18.268;2022-10-31T08:11:42;143.27;;;27.98;;
55497;SDS011;41357;52.806;18.268;2022-10-31T08:14:08;112.85;;;25.45;;
55497;SDS011;41357;52.806;18.268;2022-10-31T08:16:34;80.47;;;21.00;;
55497;SDS011;41357;52.806;18.268;2022-10-31T08:19:00;170.98;;;26.80;;
55497;SDS011;41357;52.806;18.268;2022-10-31T08:21:26;114.05;;;24.88;;
55497;SDS011;41357;52.806;18.268;2022-10-31T08:23:52;104.18;;;23.17;;
55497;SDS011;41357;52.806;18.268;2022-10-31T08:26:19;124.68;;;26.13;;
55497;SDS011;41357;52.806;18.268;2022-10-31T08:28:45;129.80;;;30.45;;
55497;SDS011;41357;52.806;18.268;2022-10-31T08:31:11;111.88;;;30.25;;
55497;SDS011;41357;52.806;18.268;2022-10-31T08:33:37;174.57;;;39.67;;
55497;SDS011;41357;52.806;18.268;2022-10-31T08:36:03;217.85;;;44.97;;
55497;SDS011;41357;52.806;18.268;2022-10-31T08:38:29;401.13;;;63.15;;
55497;SDS011;41357;52.806;18.268;2022-10-31T08:40:56;424.63;;;64.50;;
55497;SDS011;41357;52.806;18.268;2022-10-31T08:43:22;383.25;;;59.90;;
55497;SDS011;41357;52.806;18.268;2022-10-31T08:45:48;230.20;;;45.55;;
55497;SDS011;41357;52.806;18.268;2022-10-31T08:48:15;281.98;;;49.15;;
55497;SDS011;41357;52.806;18.268;2022-10-31T08:50:42;304.45;;;49.92;;
55497;SDS011;41357;52.806;18.268;2022-10-31T08:53:13;304.92;;;48.88;;
55497;SDS011;41357;52.806;18.268;2022-10-31T08:55:39;235.48;;;44.75;;
55497;SDS011;41357;52.806;18.268;2022-10-31T08:58:07;262.45;;;43.70;;
55497;SDS011;41357;52.806;18.268;2022-10-31T09:00:34;294.80;;;42.10;;
55497;SDS011;41357;52.806;18.268;2022-10-31T09:03:05;220.82;;;41.03;;
55497;SDS011;41357;52.806;18.268;2022-10-31T09:05:32;180.93;;;40.15;;
55497;SDS011;41357;52.806;18.268;2022-10-31T09:07:58;204.35;;;38.88;;
55497;SDS011;41357;52.806;18.268;2022-10-31T09:10:26;143.38;;;35.40;;
55497;SDS011;41357;52.806;18.268;2022-10-31T09:12:59;131.35;;;29.95;;
55497;SDS011;41357;52.806;18.268;2022-10-31T09:15:26;137.57;;;30.50;;
55497;SDS011;41357;52.806;18.268;2022-10-31T09:17:52;137.80;;;28.45;;
55497;SDS011;41357;52.806;18.268;2022-10-31T09:20:19;86.07;;;30.30;;
55497;SDS011;41357;52.806;18.268;2022-10-31T09:22:45;97.43;;;28.17;;
55497;SDS011;41357;52.806;18.268;2022-10-31T09:25:11;93.53;;;29.75;;
55497;SDS011;41357;52.806;18.268;2022-10-31T09:27:38;145.30;;;33.28;;
55497;SDS011;41357;52.806;18.268;2022-10-31T09:30:04;97.03;;;31.13;;
55497;SDS011;41357;52.806;18.268;2022-10-31T09:32:30;79.45;;;28.58;;
55497;SDS011;41357;52.806;18.268;2022-10-31T09:34:56;90.20;;;27.35;;
55497;SDS011;41357;52.806;18.268;2022-10-31T09:37:22;68.50;;;24.73;;
55497;SDS011;41357;52.806;18.268;2022-10-31T09:39:48;93.78;;;26.40;;
55497;SDS011;41357;52.806;18.268;2022-10-31T09:45:53;62.78;;;22.15;;
55497;SDS011;41357;52.806;18.268;2022-10-31T09:48:21;57.63;;;22.90;;
55497;SDS011;41357;52.806;18.268;2022-10-31T09:50:50;41.58;;;19.63;;
55497;SDS011;41357;52.806;18.268;2022-10-31T09:53:25;45.70;;;21.25;;
55497;SDS011;41357;52.806;18.268;2022-10-31T09:55:52;48.67;;;18.67;;
55497;SDS011;41357;52.806;18.268;2022-10-31T09:58:20;68.88;;;24.13;;
55497;SDS011;41357;52.806;18.268;2022-10-31T10:00:47;62.05;;;22.30;;
55497;SDS011;41357;52.806;18.268;2022-10-31T10:06:21;76.32;;;23.38;;
55497;SDS011;41357;52.806;18.268;2022-10-31T10:08:44;74.00;;;23.90;;
55497;SDS011;41357;52.806;18.268;2022-10-31T10:13:53;63.30;;;25.48;;
55497;SDS011;41357;52.806;18.268;2022-10-31T10:21:19;57.58;;;24.75;;
55497;SDS011;41357;52.806;18.268;2022-10-31T10:23:57;68.68;;;25.33;;
55497;SDS011;41357;52.806;18.268;2022-10-31T10:31:39;74.10;;;24.77;;
55497;SDS011;41357;52.806;18.268;2022-10-31T10:34:19;46.72;;;19.75;;
55497;SDS011;41357;52.806;18.268;2022-10-31T10:39:16;43.28;;;20.95;;
55497;SDS011;41357;52.806;18.268;2022-10-31T10:41:44;46.10;;;23.15;;
55497;SDS011;41357;52.806;18.268;2022-10-31T10:44:32;46.38;;;19.67;;
55497;SDS011;41357;52.806;18.268;2022-10-31T10:47:17;32.30;;;18.23;;
55497;SDS011;41357;52.806;18.268;2022-10-31T10:55:21;46.25;;;19.38;;
55497;SDS011;41357;52.806;18.268;2022-10-31T11:00:21;55.25;;;22.35;;
55497;SDS011;41357;52.806;18.268;2022-10-31T11:02:48;38.28;;;19.90;;
55497;SDS011;41357;52.806;18.268;2022-10-31T11:05:25;40.42;;;17.75;;
55497;SDS011;41357;52.806;18.268;2022-10-31T11:07:51;64.53;;;21.77;;
55497;SDS011;41357;52.806;18.268;2022-10-31T11:10:18;76.18;;;22.60;;
55497;SDS011;41357;52.806;18.268;2022-10-31T11:12:45;43.28;;;21.65;;
55497;SDS011;41357;52.806;18.268;2022-10-31T11:15:18;48.67;;;20.63;;
55497;SDS011;41357;52.806;18.268;2022-10-31T11:17:47;46.13;;;20.98;;
55497;SDS011;41357;52.806;18.268;2022-10-31T11:22:41;55.38;;;23.00;;
55497;SDS011;41357;52.806;18.268;2022-10-31T11:25:23;55.10;;;21.13;;
55497;SDS011;41357;52.806;18.268;2022-10-31T11:28:03;34.10;;;18.27;;
55497;SDS011;41357;52.806;18.268;2022-10-31T11:30:29;53.55;;;21.88;;
55497;SDS011;41357;52.806;18.268;2022-10-31T11:32:56;65.95;;;21.50;;
55497;SDS011;41357;52.806;18.268;2022-10-31T11:35:23;66.90;;;22.63;;
55497;SDS011;41357;52.806;18.268;2022-10-31T11:37:50;71.57;;;23.98;;
55497;SDS011;41357;52.806;18.268;2022-10-31T11:40:25;43.38;;;21.17;;
55497;SDS011;41357;52.806;18.268;2022-10-31T11:42:52;63.60;;;21.65;;
55497;SDS011;41357;52.806;18.268;2022-10-31T11:47:49;58.05;;;23.05;;
55497;SDS011;41357;52.806;18.268;2022-10-31T11:50:20;84.78;;;23.50;;
55497;SDS011;41357;52.806;18.268;2022-10-31T11:57:42;75.32;;;24.50;;
55497;SDS011;41357;52.806;18.268;2022-10-31T12:05:40;57.42;;;24.00;;
55497;SDS011;41357;52.806;18.268;2022-10-31T12:08:08;56.45;;;23.23;;
55497;SDS011;41357;52.806;18.268;2022-10-31T12:10:58;55.45;;;25.48;;
55497;SDS011;41357;52.806;18.268;2022-10-31T12:15:50;72.93;;;27.75;;
55497;SDS011;41357;52.806;18.268;2022-10-31T12:18:32;67.30;;;25.63;;
55497;SDS011;41357;52.806;18.268;2022-10-31T12:21:10;62.63;;;22.65;;
55497;SDS011;41357;52.806;18.268;2022-10-31T12:23:55;71.97;;;26.60;;
55497;SDS011;41357;52.806;18.268;2022-10-31T12:26:31;78.20;;;26.00;;
55497;SDS011;41357;52.806;18.268;2022-10-31T12:31:49;118.55;;;30.95;;
55497;SDS011;41357;52.806;18.268;2022-10-31T12:39:31;84.07;;;26.83;;
55497;SDS011;41357;52.806;18.268;2022-10-31T12:42:45;95.05;;;29.65;;
55497;SDS011;41357;52.806;18.268;2022-10-31T12:44:56;111.63;;;31.08;;
55497;SDS011;41357;52.806;18.268;2022-10-31T12:57:58;139.32;;;30.58;;
55497;SDS011;41357;52.806;18.268;2022-10-31T13:00:25;115.70;;;30.75;;
55497;SDS011;41357;52.806;18.268;2022-10-31T13:02:57;115.78;;;31.40;;
55497;SDS011;41357;52.806;18.268;2022-10-31T13:05:37;102.57;;;30.70;;
55497;SDS011;41357;52.806;18.268;2022-10-31T13:10:45;150.20;;;31.65;;
55497;SDS011;41357;52.806;18.268;2022-10-31T13:13:13;117.85;;;27.60;;
55497;SDS011;41357;52.806;18.268;2022-10-31T13:18:47;91.95;;;25.27;;
55497;SDS011;41357;52.806;18.268;2022-10-31T13:21:29;99.45;;;27.77;;
55497;SDS011;41357;52.806;18.268;2022-10-31T13:23:57;67.90;;;24.65;;
55497;SDS011;41357;52.806;18.268;2022-10-31T13:31:26;108.70;;;24.83;;
55497;SDS011;41357;52.806;18.268;2022-10-31T13:33:56;96.88;;;23.23;;
55497;SDS011;41357;52.806;18.268;2022-10-31T13:38:51;87.30;;;23.08;;
55497;SDS011;41357;52.806;18.268;2022-10-31T13:44:10;89.68;;;24.85;;
55497;SDS011;41357;52.806;18.268;2022-10-31T13:46:38;82.40;;;23.05;;
55497;SDS011;41357;52.806;18.268;2022-10-31T13:49:25;117.25;;;29.48;;
55497;SDS011;41357;52.806;18.268;2022-10-31T13:51:51;117.60;;;30.05;;
55497;SDS011;41357;52.806;18.268;2022-10-31T13:57:06;99.72;;;26.25;;
55497;SDS011;41357;52.806;18.268;2022-10-31T13:59:33;96.28;;;24.00;;
55497;SDS011;41357;52.806;18.268;2022-10-31T14:02:00;89.57;;;24.40;;
55497;SDS011;41357;52.806;18.268;2022-10-31T14:04:37;77.57;;;22.08;;
55497;SDS011;41357;52.806;18.268;2022-10-31T14:09:34;103.32;;;24.40;;
55497;SDS011;41357;52.806;18.268;2022-10-31T14:12:02;65.55;;;23.33;;
55497;SDS011;41357;52.806;18.268;2022-10-31T14:14:33;89.82;;;21.27;;
55497;SDS011;41357;52.806;18.268;2022-10-31T14:17:01;71.25;;;21.83;;
55497;SDS011;41357;52.806;18.268;2022-10-31T14:19:27;86.47;;;21.42;;
55497;SDS011;41357;52.806;18.268;2022-10-31T14:21:54;91.22;;;21.83;;
55497;SDS011;41357;52.806;18.268;2022-10-31T14:26:53;63.25;;;21.73;;
55497;SDS011;41357;52.806;18.268;2022-10-31T14:29:24;75.60;;;22.05;;
55497;SDS011;41357;52.806;18.268;2022-10-31T14:31:54;107.93;;;20.77;;
55497;SDS011;41357;52.806;18.268;2022-10-31T14:45:23;67.57;;;18.85;;
55497;SDS011;41357;52.806;18.268;2022-10-31T14:50:39;71.03;;;19.92;;
55497;SDS011;41357;52.806;18.268;2022-10-31T14:55:33;64.80;;;19.35;;
55497;SDS011;41357;52.806;18.268;2022-10-31T14:58:04;83.43;;;18.90;;
55497;SDS011;41357;52.806;18.268;2022-10-31T15:00:32;85.03;;;19.50;;
55497;SDS011;41357;52.806;18.268;2022-10-31T15:03:03;99.28;;;19.38;;
55497;SDS011;41357;52.806;18.268;2022-10-31T15:05:31;83.88;;;17.90;;
55497;SDS011;41357;52.806;18.268;2022-10-31T15:07:58;71.05;;;19.63;;
55497;SDS011;41357;52.806;18.268;2022-10-31T15:10:26;75.03;;;18.83;;
55497;SDS011;41357;52.806;18.268;2022-10-31T15:12:52;98.53;;;19.48;;
55497;SDS011;41357;52.806;18.268;2022-10-31T15:15:23;102.30;;;20.00;;
55497;SDS011;41357;52.806;18.268;2022-10-31T15:17:53;94.90;;;18.92;;
55497;SDS011;41357;52.806;18.268;2022-10-31T15:20:21;68.47;;;20.13;;
55497;SDS011;41357;52.806;18.268;2022-10-31T15:22:48;55.78;;;20.00;;
55497;SDS011;41357;52.806;18.268;2022-10-31T15:25:18;60.03;;;18.13;;
55497;SDS011;41357;52.806;18.268;2022-10-31T15:27:45;46.50;;;17.25;;
55497;SDS011;41357;52.806;18.268;2022-10-31T15:30:30;36.72;;;15.85;;
55497;SDS011;41357;52.806;18.268;2022-10-31T15:32:56;95.75;;;20.65;;
55497;SDS011;41357;52.806;18.268;2022-10-31T15:35:23;69.97;;;18.08;;
55497;SDS011;41357;52.806;18.268;2022-10-31T15:37:53;79.53;;;18.83;;
55497;SDS011;41357;52.806;18.268;2022-10-31T15:40:21;47.10;;;19.58;;
55497;SDS011;41357;52.806;18.268;2022-10-31T15:42:55;83.03;;;21.42;;
55497;SDS011;41357;52.806;18.268;2022-10-31T15:45:23;88.32;;;21.58;;
55497;SDS011;41357;52.806;18.268;2022-10-31T15:48:00;48.17;;;19.40;;
55497;SDS011;41357;52.806;18.268;2022-10-31T15:50:28;85.38;;;20.13;;
55497;SDS011;41357;52.806;18.268;2022-10-31T15:52:55;121.57;;;19.67;;
55497;SDS011;41357;52.806;18.268;2022-10-31T15:55:23;56.30;;;17.13;;
55497;SDS011;41357;52.806;18.268;2022-10-31T15:57:50;94.80;;;20.15;;
55497;SDS011;41357;52.806;18.268;2022-10-31T16:00:35;51.63;;;19.00;;
55497;SDS011;41357;52.806;18.268;2022-10-31T16:05:34;69.05;;;19.35;;
55497;SDS011;41357;52.806;18.268;2022-10-31T16:10:26;56.75;;;17.73;;
55497;SDS011;41357;52.806;18.268;2022-10-31T16:12:53;42.03;;;16.90;;
55497;SDS011;41357;52.806;18.268;2022-10-31T16:15:20;70.13;;;19.80;;
55497;SDS011;41357;52.806;18.268;2022-10-31T16:17:47;52.95;;;18.92;;
55497;SDS011;41357;52.806;18.268;2022-10-31T16:20:21;62.80;;;19.13;;
55497;SDS011;41357;52.806;18.268;2022-10-31T16:22:50;38.45;;;18.95;;
55497;SDS011;41357;52.806;18.268;2022-10-31T16:25:19;54.30;;;20.45;;
55497;SDS011;41357;52.806;18.268;2022-10-31T16:27:47;52.47;;;19.17;;
55497;SDS011;41357;52.806;18.268;2022-10-31T16:32:59;42.22;;;19.42;;
55497;SDS011;41357;52.806;18.268;2022-10-31T16:35:27;44.08;;;19.08;;
55497;SDS011;41357;52.806;18.268;2022-10-31T16:37:54;42.08;;;18.77;;